sensor_id;sensor_type;location;lat;lon;timestamp;P1;durP1;ratioP1;P2;durP2;ratioP2
29162;SDS011;20331;53.144;8.208;2022-09-12T00:15:08;7.07;;;6.10;;
29162;SDS011;20331;53.144;8.208;2022-09-12T00:25:30;10.98;;;7.03;;
29162;SDS011;20331;53.144;8.208;2022-09-12T00:46:20;6.33;;;5.63;;
29162;SDS011;20331;53.144;8.208;2022-09-12T00:56:56;8.50;;;6.57;;
29162;SDS011;20331;53.144;8.208;2022-09-12T01:07:21;9.18;;;7.10;;
29162;SDS011;20331;53.144;8.208;2022-09-12T01:49:57;9.20;;;7.20;;
29162;SDS011;20331;53.144;8.208;2022-09-12T02:00:23;9.20;;;7.78;;
29162;SDS011;20331;53.144;8.208;2022-09-12T02:10:46;8.07;;;6.75;;
29162;SDS011;20331;53.144;8.208;2022-09-12T02:21:13;7.90;;;6.72;;
29162;SDS011;20331;53.144;8.208;2022-09-12T02:31:44;10.93;;;7.13;;
29162;SDS011;20331;53.144;8.208;2022-09-12T02:42:08;10.85;;;7.63;;
29162;SDS011;20331;53.144;8.208;2022-09-12T03:34:31;9.77;;;7.72;;
29162;SDS011;20331;53.144;8.208;2022-09-12T03:44:53;9.82;;;7.57;;
29162;SDS011;20331;53.144;8.208;2022-09-12T03:55:14;8.27;;;7.32;;
29162;SDS011;20331;53.144;8.208;2022-09-12T04:05:36;13.27;;;7.40;;
29162;SDS011;20331;53.144;8.208;2022-09-12T04:15:58;11.55;;;7.80;;
29162;SDS011;20331;53.144;8.208;2022-09-12T04:26:20;8.73;;;7.32;;
29162;SDS011;20331;53.144;8.208;2022-09-12T04:36:41;7.97;;;7.18;;
29162;SDS011;20331;53.144;8.208;2022-09-12T04:57:24;14.73;;;8.00;;
29162;SDS011;20331;53.144;8.208;2022-09-12T05:18:07;10.73;;;7.43;;
29162;SDS011;20331;53.144;8.208;2022-09-12T05:28:30;9.65;;;7.68;;
29162;SDS011;20331;53.144;8.208;2022-09-12T05:38:53;12.10;;;8.15;;
29162;SDS011;20331;53.144;8.208;2022-09-12T05:49:15;11.25;;;8.80;;
29162;SDS011;20331;53.144;8.208;2022-09-12T05:59:37;27.42;;;12.00;;
29162;SDS011;20331;53.144;8.208;2022-09-12T06:20:20;21.03;;;14.00;;
29162;SDS011;20331;53.144;8.208;2022-09-12T06:30:41;21.95;;;13.85;;
29162;SDS011;20331;53.144;8.208;2022-09-12T06:51:26;25.02;;;15.48;;
29162;SDS011;20331;53.144;8.208;2022-09-12T07:01:48;20.63;;;14.57;;
29162;SDS011;20331;53.144;8.208;2022-09-12T07:12:11;20.95;;;16.13;;
29162;SDS011;20331;53.144;8.208;2022-09-12T07:22:32;21.70;;;16.60;;
29162;SDS011;20331;53.144;8.208;2022-09-12T07:43:15;23.83;;;16.35;;
29162;SDS011;20331;53.144;8.208;2022-09-12T07:53:37;25.85;;;16.25;;
29162;SDS011;20331;53.144;8.208;2022-09-12T08:04:01;28.42;;;16.30;;
29162;SDS011;20331;53.144;8.208;2022-09-12T08:14:24;25.65;;;17.17;;
29162;SDS011;20331;53.144;8.208;2022-09-12T08:24:47;23.42;;;16.27;;
29162;SDS011;20331;53.144;8.208;2022-09-12T08:35:09;26.92;;;16.92;;
29162;SDS011;20331;53.144;8.208;2022-09-12T08:45:32;27.23;;;18.05;;
29162;SDS011;20331;53.144;8.208;2022-09-12T08:55:59;27.75;;;17.92;;
29162;SDS011;20331;53.144;8.208;2022-09-12T09:16:54;29.40;;;16.85;;
29162;SDS011;20331;53.144;8.208;2022-09-12T09:27:26;29.77;;;15.60;;
29162;SDS011;20331;53.144;8.208;2022-09-12T09:38:04;21.08;;;14.73;;
29162;SDS011;20331;53.144;8.208;2022-09-12T09:48:39;22.70;;;13.05;;
29162;SDS011;20331;53.144;8.208;2022-09-12T09:59:08;20.88;;;12.38;;
29162;SDS011;20331;53.144;8.208;2022-09-12T10:09:36;19.30;;;10.50;;
29162;SDS011;20331;53.144;8.208;2022-09-12T10:19:58;14.45;;;9.98;;
29162;SDS011;20331;53.144;8.208;2022-09-12T10:30:39;14.40;;;8.10;;
29162;SDS011;20331;53.144;8.208;2022-09-12T10:41:12;7.53;;;5.22;;
29162;SDS011;20331;53.144;8.208;2022-09-12T10:51:34;8.23;;;4.75;;
29162;SDS011;20331;53.144;8.208;2022-09-12T11:02:00;7.28;;;4.80;;
29162;SDS011;20331;53.144;8.208;2022-09-12T11:12:39;7.32;;;4.63;;
29162;SDS011;20331;53.144;8.208;2022-09-12T11:23:17;6.50;;;4.97;;
29162;SDS011;20331;53.144;8.208;2022-09-12T11:33:43;9.00;;;4.40;;
29162;SDS011;20331;53.144;8.208;2022-09-12T11:44:22;9.50;;;5.65;;
29162;SDS011;20331;53.144;8.208;2022-09-12T11:54:49;11.15;;;6.40;;
29162;SDS011;20331;53.144;8.208;2022-09-12T12:15:55;10.80;;;5.75;;
29162;SDS011;20331;53.144;8.208;2022-09-12T12:37:43;13.43;;;7.80;;
29162;SDS011;20331;53.144;8.208;2022-09-12T12:47:52;16.95;;;7.18;;
29162;SDS011;20331;53.144;8.208;2022-09-12T13:08:54;10.02;;;6.43;;
29162;SDS011;20331;53.144;8.208;2022-09-12T13:19:22;8.40;;;5.43;;
29162;SDS011;20331;53.144;8.208;2022-09-12T13:29:48;7.25;;;4.82;;
29162;SDS011;20331;53.144;8.208;2022-09-12T13:40:17;10.60;;;5.22;;
29162;SDS011;20331;53.144;8.208;2022-09-12T13:50:53;8.93;;;4.85;;
29162;SDS011;20331;53.144;8.208;2022-09-12T14:01:17;8.55;;;5.05;;
29162;SDS011;20331;53.144;8.208;2022-09-12T14:11:39;7.35;;;5.10;;
29162;SDS011;20331;53.144;8.208;2022-09-12T14:22:00;5.75;;;3.80;;
29162;SDS011;20331;53.144;8.208;2022-09-12T14:32:24;6.55;;;3.78;;
29162;SDS011;20331;53.144;8.208;2022-09-12T14:42:49;5.88;;;4.07;;
29162;SDS011;20331;53.144;8.208;2022-09-12T15:14:11;6.70;;;3.33;;
29162;SDS011;20331;53.144;8.208;2022-09-12T15:24:34;5.97;;;3.30;;
29162;SDS011;20331;53.144;8.208;2022-09-12T15:34:55;9.25;;;3.75;;
29162;SDS011;20331;53.144;8.208;2022-09-12T15:45:21;7.75;;;3.80;;
29162;SDS011;20331;53.144;8.208;2022-09-12T15:55:45;5.57;;;3.83;;
29162;SDS011;20331;53.144;8.208;2022-09-12T16:06:07;4.45;;;3.10;;
29162;SDS011;20331;53.144;8.208;2022-09-12T16:16:31;4.65;;;2.53;;
29162;SDS011;20331;53.144;8.208;2022-09-12T16:26:52;4.20;;;2.70;;
29162;SDS011;20331;53.144;8.208;2022-09-12T16:37:20;4.95;;;2.60;;
29162;SDS011;20331;53.144;8.208;2022-09-12T16:47:42;2.30;;;2.10;;
29162;SDS011;20331;53.144;8.208;2022-09-12T16:58:04;5.10;;;2.40;;
29162;SDS011;20331;53.144;8.208;2022-09-12T17:08:26;2.90;;;2.28;;
29162;SDS011;20331;53.144;8.208;2022-09-12T17:18:49;5.53;;;2.50;;
29162;SDS011;20331;53.144;8.208;2022-09-12T17:29:12;3.47;;;2.35;;
29162;SDS011;20331;53.144;8.208;2022-09-12T17:39:34;4.45;;;2.25;;
29162;SDS011;20331;53.144;8.208;2022-09-12T17:49:55;5.05;;;2.30;;
29162;SDS011;20331;53.144;8.208;2022-09-12T18:00:37;3.70;;;2.50;;
29162;SDS011;20331;53.144;8.208;2022-09-12T18:11:17;3.90;;;2.50;;
29162;SDS011;20331;53.144;8.208;2022-09-12T18:21:38;7.25;;;2.75;;
29162;SDS011;20331;53.144;8.208;2022-09-12T18:32:00;6.90;;;2.85;;
29162;SDS011;20331;53.144;8.208;2022-09-12T18:42:23;4.28;;;2.88;;
29162;SDS011;20331;53.144;8.208;2022-09-12T18:52:45;3.50;;;2.90;;
29162;SDS011;20331;53.144;8.208;2022-09-12T19:03:06;3.75;;;2.95;;
29162;SDS011;20331;53.144;8.208;2022-09-12T19:13:28;7.97;;;3.20;;
29162;SDS011;20331;53.144;8.208;2022-09-12T19:23:50;4.72;;;3.10;;
29162;SDS011;20331;53.144;8.208;2022-09-12T19:34:13;5.43;;;3.47;;
29162;SDS011;20331;53.144;8.208;2022-09-12T19:44:35;10.00;;;4.20;;
29162;SDS011;20331;53.144;8.208;2022-09-12T19:54:57;8.32;;;3.75;;
29162;SDS011;20331;53.144;8.208;2022-09-12T20:05:18;6.90;;;3.72;;
29162;SDS011;20331;53.144;8.208;2022-09-12T20:15:40;6.32;;;4.40;;
29162;SDS011;20331;53.144;8.208;2022-09-12T20:26:02;10.05;;;4.68;;
29162;SDS011;20331;53.144;8.208;2022-09-12T20:36:24;7.50;;;4.45;;
29162;SDS011;20331;53.144;8.208;2022-09-12T20:46:46;6.90;;;4.60;;
29162;SDS011;20331;53.144;8.208;2022-09-12T20:57:08;15.48;;;4.72;;
29162;SDS011;20331;53.144;8.208;2022-09-12T21:07:29;8.77;;;4.90;;
29162;SDS011;20331;53.144;8.208;2022-09-12T21:17:51;9.07;;;5.82;;
29162;SDS011;20331;53.144;8.208;2022-09-12T21:28:13;11.00;;;5.47;;
29162;SDS011;20331;53.144;8.208;2022-09-12T21:38:35;12.50;;;5.63;;
29162;SDS011;20331;53.144;8.208;2022-09-12T21:48:57;9.75;;;6.45;;
29162;SDS011;20331;53.144;8.208;2022-09-12T21:59:19;7.30;;;5.60;;
29162;SDS011;20331;53.144;8.208;2022-09-12T22:09:40;9.60;;;6.38;;
29162;SDS011;20331;53.144;8.208;2022-09-12T22:20:02;9.68;;;6.53;;
29162;SDS011;20331;53.144;8.208;2022-09-12T22:30:24;32.33;;;7.90;;
29162;SDS011;20331;53.144;8.208;2022-09-12T22:40:47;14.23;;;7.47;;
29162;SDS011;20331;53.144;8.208;2022-09-12T22:51:09;10.63;;;7.13;;
29162;SDS011;20331;53.144;8.208;2022-09-12T23:01:31;13.30;;;7.13;;
29162;SDS011;20331;53.144;8.208;2022-09-12T23:11:53;14.60;;;7.75;;
29162;SDS011;20331;53.144;8.208;2022-09-12T23:22:14;11.23;;;8.00;;
29162;SDS011;20331;53.144;8.208;2022-09-12T23:32:36;16.15;;;7.70;;
29162;SDS011;20331;53.144;8.208;2022-09-12T23:42:57;12.05;;;8.13;;
29162;SDS011;20331;53.144;8.208;2022-09-12T23:53:19;13.57;;;8.55;;
